Time;durP1;ratioP1;P1;durP2;ratioP2;P2;SDS_P1;SDS_P2;PMS_P1;PMS_P2;Temp;Humidity;BMP_temperature;BMP_pressure;BME280_temperature;BME280_humidity;BME280_pressure;Samples;Min_cycle;Max_cycle;Signal;HPM_P1;HPM_P2
2021/06/07 00:01:26;;;;;;;28.17;25.87;;;16.30;99.90;;;;;;5100536;28;20453;-72
2021/06/07 00:03:52;;;;;;;27.30;25.00;;;16.20;99.90;;;;;;5099704;28;20530;-71
2021/06/07 00:06:20;;;;;;;28.27;25.60;;;16.10;99.90;;;;;;5102539;28;20481;-71
2021/06/07 00:08:48;;;;;;;27.73;25.60;;;16.20;99.90;;;;;;5094203;28;20450;-71
2021/06/07 00:11:15;;;;;;;28.37;25.77;;;16.10;99.90;;;;;;5097847;28;20487;-70
2021/06/07 00:13:43;;;;;;;27.60;25.40;;;16.00;99.90;;;;;;5098314;28;20465;-71
2021/06/07 00:16:11;;;;;;;28.03;25.63;;;16.00;99.90;;;;;;5099447;28;20453;-73
2021/06/07 00:18:37;;;;;;;27.20;24.77;;;16.00;99.90;;;;;;5096585;28;20539;-71
2021/06/07 00:21:09;;;;;;;28.40;25.77;;;16.00;99.90;;;;;;5099324;28;20465;-70
2021/06/07 00:23:35;;;;;;;26.77;24.43;;;16.00;99.90;;;;;;5098655;28;20462;-72
2021/06/07 00:26:04;;;;;;;28.30;25.67;;;16.00;99.90;;;;;;5099193;28;20485;-71
2021/06/07 00:28:32;;;;;;;27.50;25.40;;;16.00;99.90;;;;;;5099235;28;20991;-71
2021/06/07 00:31:00;;;;;;;28.10;25.67;;;15.90;99.90;;;;;;5095702;28;20496;-71
2021/06/07 00:33:26;;;;;;;26.70;24.60;;;15.90;99.90;;;;;;5097200;28;20978;-72
2021/06/07 00:35:53;;;;;;;27.97;25.50;;;15.90;99.90;;;;;;5096548;28;20465;-71
2021/06/07 00:38:20;;;;;;;27.27;24.80;;;16.00;99.90;;;;;;5100591;28;20460;-71
2021/06/07 00:40:46;;;;;;;26.80;23.93;;;15.90;99.90;;;;;;5098075;28;20460;-70
2021/06/07 00:43:14;;;;;;;27.50;25.30;;;16.00;99.90;;;;;;5100800;28;20526;-73
2021/06/07 00:45:41;;;;;;;27.53;25.00;;;15.90;99.90;;;;;;5099647;28;20473;-70
2021/06/07 00:48:09;;;;;;;28.37;25.70;;;15.80;99.90;;;;;;5101554;28;20932;-72
2021/06/07 00:50:39;;;;;;;26.90;24.57;;;15.80;99.90;;;;;;5100938;28;20471;-71
2021/06/07 00:53:09;;;;;;;28.30;25.80;;;15.90;99.90;;;;;;5097183;28;20464;-72
2021/06/07 00:55:38;;;;;;;28.97;26.47;;;15.90;99.90;;;;;;5105460;28;20467;-71
2021/06/07 00:58:05;;;;;;;28.90;26.13;;;15.90;99.90;;;;;;5102020;28;20878;-70
2021/06/07 01:00:34;;;;;;;27.83;25.60;;;15.80;99.90;;;;;;5099561;28;20465;-70
2021/06/07 01:03:01;;;;;;;28.90;26.30;;;15.60;99.90;;;;;;5099653;28;20534;-73
2021/06/07 01:05:28;;;;;;;27.83;25.63;;;15.60;99.90;;;;;;5103727;28;20501;-70
2021/06/07 01:07:55;;;;;;;27.83;25.30;;;15.60;99.90;;;;;;5104092;28;20454;-70
2021/06/07 01:10:23;;;;;;;28.13;25.63;;;15.60;99.90;;;;;;5108833;28;20449;-72
2021/06/07 01:12:50;;;;;;;29.07;26.67;;;15.60;99.90;;;;;;5101264;28;20885;-72
2021/06/07 01:15:17;;;;;;;29.40;26.40;;;15.50;99.90;;;;;;5097030;28;20527;-70
2021/06/07 01:17:45;;;;;;;29.83;27.03;;;15.50;99.90;;;;;;5095148;28;20464;-71
2021/06/07 01:20:15;;;;;;;28.53;25.90;;;15.50;99.90;;;;;;5102740;28;20462;-70
2021/06/07 01:22:44;;;;;;;29.23;26.40;;;15.40;99.90;;;;;;5105218;28;21001;-72
2021/06/07 01:25:16;;;;;;;28.10;25.73;;;15.40;99.90;;;;;;5101542;28;20907;-70
2021/06/07 01:27:43;;;;;;;30.70;27.93;;;15.30;99.90;;;;;;5095531;28;21048;-70
2021/06/07 01:30:12;;;;;;;30.37;27.33;;;15.20;99.90;;;;;;5097499;28;20846;-70
2021/06/07 01:32:40;;;;;;;30.27;27.67;;;15.10;99.90;;;;;;5105553;28;20460;-71
2021/06/07 01:35:09;;;;;;;30.47;27.90;;;15.00;99.90;;;;;;5097676;28;20466;-71
2021/06/07 01:37:36;;;;;;;32.20;29.13;;;14.80;99.90;;;;;;5099887;28;20469;-70
2021/06/07 01:40:05;;;;;;;32.50;29.50;;;14.70;99.90;;;;;;5098513;28;20461;-71
2021/06/07 01:42:31;;;;;;;32.30;29.50;;;14.60;99.90;;;;;;5103441;28;21024;-70
2021/06/07 01:44:58;;;;;;;33.27;30.13;;;14.50;99.90;;;;;;5093814;28;20496;-71
2021/06/07 01:47:24;;;;;;;32.27;29.67;;;14.40;99.90;;;;;;5102516;28;20871;-70
2021/06/07 01:49:50;;;;;;;32.50;29.60;;;14.30;99.90;;;;;;5098671;28;20875;-71
2021/06/07 01:52:17;;;;;;;32.77;29.60;;;14.30;99.90;;;;;;5100218;28;20450;-70
2021/06/07 01:54:44;;;;;;;33.07;30.10;;;14.20;99.90;;;;;;5098495;28;20538;-70
2021/06/07 01:57:12;;;;;;;33.40;30.30;;;14.20;99.90;;;;;;5094872;28;20464;-70
2021/06/07 01:59:38;;;;;;;34.47;31.30;;;14.20;99.90;;;;;;5099113;28;20478;-71
2021/06/07 02:02:06;;;;;;;34.47;31.20;;;14.20;99.90;;;;;;5103217;28;20467;-69
2021/06/07 02:04:34;;;;;;;34.27;31.13;;;14.30;99.90;;;;;;5095736;28;21003;-70
2021/06/07 02:07:01;;;;;;;39.73;31.63;;;14.40;99.90;;;;;;5093317;28;20462;-70
2021/06/07 02:09:28;;;;;;;34.00;30.80;;;14.40;99.90;;;;;;5102360;28;20462;-70
2021/06/07 02:11:55;;;;;;;35.17;31.80;;;14.40;99.90;;;;;;5106559;28;21073;-70
2021/06/07 02:14:23;;;;;;;33.07;30.00;;;14.50;99.90;;;;;;5106232;28;20510;-71
2021/06/07 02:16:50;;;;;;;36.07;32.60;;;14.50;99.90;;;;;;5101070;28;20449;-70
2021/06/07 02:19:16;;;;;;;35.17;31.53;;;14.60;99.90;;;;;;5098049;28;20458;-70
2021/06/07 02:21:42;;;;;;;34.07;30.50;;;14.70;99.90;;;;;;5100109;28;20465;-70
2021/06/07 02:24:10;;;;;;;35.67;32.10;;;14.80;99.90;;;;;;5104043;28;20454;-70
2021/06/07 02:26:38;;;;;;;35.67;32.10;;;14.90;99.90;;;;;;5100719;28;20866;-71
2021/06/07 02:29:06;;;;;;;35.73;32.13;;;14.90;99.90;;;;;;5097136;28;20454;-70
2021/06/07 02:31:35;;;;;;;42.57;34.63;;;14.90;99.90;;;;;;5099862;28;20458;-70
2021/06/07 02:34:05;;;;;;;35.53;32.00;;;14.90;99.90;;;;;;5100682;28;20700;-70
2021/06/07 02:36:36;;;;;;;36.83;33.43;;;14.80;99.90;;;;;;5100282;28;20464;-70
2021/06/07 02:39:04;;;;;;;39.60;32.20;;;14.80;99.90;;;;;;5101189;28;20702;-70
2021/06/07 02:41:31;;;;;;;35.60;32.20;;;14.80;99.90;;;;;;5103895;28;20540;-70
2021/06/07 02:43:57;;;;;;;35.70;32.30;;;14.80;99.90;;;;;;5095691;28;20477;-70
2021/06/07 02:46:24;;;;;;;35.77;32.07;;;14.90;99.90;;;;;;5095846;28;20489;-70
2021/06/07 02:48:52;;;;;;;34.30;31.13;;;14.90;99.90;;;;;;5103733;28;20464;-72
2021/06/07 02:51:19;;;;;;;35.90;32.30;;;15.00;99.90;;;;;;5101528;28;20464;-70
2021/06/07 02:53:48;;;;;;;34.57;30.93;;;14.90;99.90;;;;;;5099388;28;20461;-70
2021/06/07 02:56:14;;;;;;;34.07;30.77;;;15.00;99.90;;;;;;5099218;28;20548;-69
2021/06/07 02:58:41;;;;;;;33.30;29.90;;;15.00;99.90;;;;;;5093312;28;20526;-70
2021/06/07 03:01:09;;;;;;;34.03;30.73;;;15.10;99.90;;;;;;5103690;28;20472;-69
2021/06/07 03:03:35;;;;;;;32.67;29.47;;;15.10;99.90;;;;;;5101251;28;20461;-70
2021/06/07 03:06:04;;;;;;;31.97;28.87;;;15.20;99.90;;;;;;5098407;28;20848;-70
2021/06/07 03:08:33;;;;;;;33.33;29.67;;;15.10;99.90;;;;;;5098283;28;20473;-70
2021/06/07 03:11:03;;;;;;;32.07;28.87;;;15.00;99.90;;;;;;5101685;28;20465;-70
2021/06/07 03:13:30;;;;;;;33.60;30.07;;;15.00;99.90;;;;;;5099812;28;20461;-70
2021/06/07 03:15:58;;;;;;;33.50;29.73;;;14.90;99.90;;;;;;5101884;28;20502;-70
2021/06/07 03:18:25;;;;;;;34.20;30.80;;;14.80;99.90;;;;;;5095161;28;20446;-70
2021/06/07 03:20:52;;;;;;;37.33;31.93;;;14.60;99.90;;;;;;5099096;28;20453;-70
2021/06/07 03:23:23;;;;;;;35.77;32.23;;;14.50;99.90;;;;;;5097713;28;20457;-71
2021/06/07 03:25:50;;;;;;;35.27;31.77;;;14.50;99.90;;;;;;5099463;28;20547;-70
2021/06/07 03:28:17;;;;;;;38.30;30.63;;;14.30;99.90;;;;;;5100433;28;20505;-69
2021/06/07 03:30:45;;;;;;;38.03;33.93;;;14.20;99.90;;;;;;5094642;28;20461;-70
2021/06/07 03:33:13;;;;;;;36.87;33.10;;;14.10;99.90;;;;;;5102124;28;20571;-70
2021/06/07 03:35:42;;;;;;;36.87;32.97;;;14.00;99.90;;;;;;5101603;28;21184;-70
2021/06/07 03:38:10;;;;;;;37.90;33.90;;;13.90;99.90;;;;;;5094076;28;20462;-71
2021/06/07 03:40:40;;;;;;;37.13;33.33;;;13.90;99.90;;;;;;5096920;28;20453;-71
2021/06/07 03:43:07;;;;;;;41.77;34.80;;;13.80;99.90;;;;;;5097952;28;20468;-72
2021/06/07 03:45:35;;;;;;;41.93;34.37;;;13.70;99.90;;;;;;5098638;28;20492;-70
2021/06/07 03:48:03;;;;;;;38.47;34.37;;;13.70;99.90;;;;;;5102727;28;20479;-70
2021/06/07 03:50:30;;;;;;;39.47;35.40;;;13.70;99.90;;;;;;5098501;28;20674;-70
2021/06/07 03:52:56;;;;;;;43.30;37.60;;;13.60;99.90;;;;;;5097855;28;20460;-70
2021/06/07 03:55:26;;;;;;;43.77;36.03;;;13.70;99.90;;;;;;5097925;28;20468;-70
2021/06/07 03:57:55;;;;;;;41.33;36.90;;;13.60;99.90;;;;;;5098965;28;20860;-71
2021/06/07 04:00:24;;;;;;;38.97;35.07;;;13.50;99.90;;;;;;5100310;28;20508;-70
2021/06/07 04:02:51;;;;;;;40.17;35.97;;;13.60;99.90;;;;;;5101334;28;20465;-69
2021/06/07 04:05:18;;;;;;;39.60;35.33;;;13.50;99.90;;;;;;5100338;28;20486;-71
2021/06/07 04:07:45;;;;;;;38.80;34.70;;;13.60;99.90;;;;;;5098390;28;20487;-70
2021/06/07 04:10:14;;;;;;;39.27;35.27;;;13.50;99.90;;;;;;5092672;28;20537;-72
2021/06/07 04:12:40;;;;;;;42.13;35.30;;;13.50;99.90;;;;;;5098831;28;20469;-70
2021/06/07 04:15:10;;;;;;;39.90;35.97;;;13.40;99.90;;;;;;5096881;28;20543;-70
2021/06/07 04:17:38;;;;;;;39.67;35.77;;;13.40;99.90;;;;;;5099259;28;20453;-70
2021/06/07 04:20:06;;;;;;;38.40;34.67;;;13.40;99.90;;;;;;5097367;28;20508;-69
2021/06/07 04:22:32;;;;;;;39.90;35.47;;;13.40;99.90;;;;;;5100309;28;20514;-70
2021/06/07 04:24:59;;;;;;;38.13;34.20;;;13.40;99.90;;;;;;5104282;28;20465;-70
2021/06/07 04:27:25;;;;;;;39.73;35.83;;;13.40;99.90;;;;;;5103792;28;20471;-71
2021/06/07 04:29:52;;;;;;;41.10;37.00;;;13.40;99.90;;;;;;5098803;28;20620;-70
2021/06/07 04:32:20;;;;;;;41.40;34.87;;;13.40;99.90;;;;;;5111487;28;20505;-69
2021/06/07 04:34:46;;;;;;;40.13;36.00;;;13.40;99.90;;;;;;5099990;28;20462;-71
2021/06/07 04:37:13;;;;;;;42.53;35.80;;;13.50;99.90;;;;;;5100714;28;20708;-70
2021/06/07 04:39:39;;;;;;;41.87;37.67;;;13.50;99.90;;;;;;5104427;28;20480;-70
2021/06/07 04:42:07;;;;;;;39.83;35.33;;;13.50;99.90;;;;;;5103142;28;20464;-71
2021/06/07 04:44:35;;;;;;;43.07;38.70;;;13.60;99.90;;;;;;5102533;28;21195;-69
2021/06/07 04:47:01;;;;;;;43.03;38.60;;;13.70;99.90;;;;;;5100066;28;20488;-69
2021/06/07 04:49:29;;;;;;;42.30;37.67;;;13.80;99.90;;;;;;5099800;28;20458;-70
2021/06/07 04:51:56;;;;;;;41.93;37.60;;;13.80;99.90;;;;;;5104345;28;20487;-71
2021/06/07 04:54:22;;;;;;;43.20;38.57;;;14.00;99.90;;;;;;5105130;28;20456;-72
2021/06/07 04:56:49;;;;;;;44.00;39.40;;;14.20;99.90;;;;;;5102194;28;20510;-70
2021/06/07 04:59:15;;;;;;;41.93;37.47;;;14.20;99.90;;;;;;5095156;28;20565;-69
2021/06/07 05:01:42;;;;;;;42.57;38.07;;;14.40;99.90;;;;;;5102906;28;20453;-69
2021/06/07 05:04:08;;;;;;;44.00;38.97;;;14.60;99.90;;;;;;5096968;28;21015;-71
2021/06/07 05:06:36;;;;;;;41.37;37.20;;;14.50;99.90;;;;;;5100846;28;20758;-70
2021/06/07 05:09:02;;;;;;;47.93;35.73;;;14.60;99.90;;;;;;5103185;28;20968;-70
2021/06/07 05:11:29;;;;;;;37.83;33.87;;;14.70;99.90;;;;;;5097703;28;20546;-70
2021/06/07 05:13:55;;;;;;;40.90;36.87;;;14.70;99.90;;;;;;5103368;27;20457;-70
2021/06/07 05:16:21;;;;;;;42.63;35.07;;;14.70;99.90;;;;;;5100718;28;20465;-72
2021/06/07 05:18:49;;;;;;;40.37;36.27;;;14.70;99.90;;;;;;5104851;28;21471;-71
2021/06/07 05:21:15;;;;;;;40.40;36.07;;;14.70;99.90;;;;;;5105290;28;20457;-71
2021/06/07 05:23:43;;;;;;;38.53;34.57;;;14.80;99.90;;;;;;5102127;28;20453;-72
2021/06/07 05:26:10;;;;;;;43.63;37.07;;;14.70;99.90;;;;;;5099955;28;20500;-71
2021/06/07 05:28:37;;;;;;;38.00;34.00;;;14.80;99.90;;;;;;5101041;28;20453;-70
2021/06/07 05:31:04;;;;;;;39.60;35.30;;;14.80;99.90;;;;;;5105108;28;20552;-71
2021/06/07 05:33:30;;;;;;;49.53;38.27;;;14.80;99.90;;;;;;5106060;28;20874;-71
2021/06/07 05:35:56;;;;;;;48.77;37.10;;;14.90;99.90;;;;;;5103312;28;21065;-70
2021/06/07 05:38:23;;;;;;;47.00;36.83;;;15.00;99.90;;;;;;5095429;28;20541;-70
2021/06/07 05:40:54;;;;;;;43.53;36.90;;;15.10;99.90;;;;;;5101256;28;20453;-69
2021/06/07 05:43:23;;;;;;;44.27;36.63;;;15.10;99.90;;;;;;5103002;28;20453;-70
2021/06/07 05:45:51;;;;;;;41.80;36.40;;;15.10;99.90;;;;;;5105435;28;20466;-71
2021/06/07 05:48:18;;;;;;;44.10;36.10;;;15.10;99.90;;;;;;5104170;28;20521;-71
2021/06/07 05:50:46;;;;;;;42.00;35.33;;;15.20;99.90;;;;;;5100328;28;20470;-69
2021/06/07 05:53:14;;;;;;;49.10;35.93;;;15.20;99.90;;;;;;5098470;28;20469;-70
2021/06/07 05:55:44;;;;;;;52.10;36.30;;;15.30;99.90;;;;;;5100556;28;20529;-70
2021/06/07 05:58:17;;;;;;;46.17;37.53;;;15.40;99.90;;;;;;5095421;28;20453;-71
2021/06/07 06:00:45;;;;;;;42.43;35.87;;;15.40;99.90;;;;;;5102658;28;20556;-72
2021/06/07 06:03:12;;;;;;;46.60;35.23;;;15.30;99.90;;;;;;5101859;28;20552;-70
2021/06/07 06:05:40;;;;;;;45.00;35.40;;;15.40;99.90;;;;;;5100031;28;21027;-70
2021/06/07 06:08:06;;;;;;;42.37;35.67;;;15.60;99.90;;;;;;5099598;28;20821;-70
2021/06/07 06:10:34;;;;;;;46.17;35.20;;;15.70;99.90;;;;;;5102467;28;21238;-71
2021/06/07 06:13:00;;;;;;;40.73;34.33;;;15.90;99.90;;;;;;5099826;27;20462;-70
2021/06/07 06:15:28;;;;;;;45.07;35.73;;;16.10;99.90;;;;;;5098499;28;20465;-71
2021/06/07 06:17:55;;;;;;;53.30;35.27;;;16.40;99.90;;;;;;5098648;28;20943;-70
2021/06/07 06:20:25;;;;;;;44.40;35.97;;;16.60;99.90;;;;;;5099045;28;20673;-72
2021/06/07 06:22:51;;;;;;;41.40;34.50;;;16.80;99.90;;;;;;5100849;28;20742;-73
2021/06/07 06:25:20;;;;;;;43.37;34.20;;;16.90;99.90;;;;;;5101488;28;20488;-70
2021/06/07 06:27:47;;;;;;;39.50;34.60;;;16.90;99.90;;;;;;5099094;28;20522;-70
2021/06/07 06:30:18;;;;;;;40.93;36.20;;;17.00;99.90;;;;;;5101114;28;20453;-72
2021/06/07 06:32:47;;;;;;;52.90;38.93;;;17.10;99.90;;;;;;5099273;28;20543;-70
2021/06/07 06:35:15;;;;;;;56.23;42.80;;;17.10;99.90;;;;;;5095725;28;20508;-71
2021/06/07 06:37:44;;;;;;;61.33;44.70;;;17.10;99.90;;;;;;5102188;28;20463;-71
2021/06/07 06:40:12;;;;;;;65.00;48.40;;;17.20;99.90;;;;;;5100317;28;20453;-71
2021/06/07 06:42:39;;;;;;;70.00;49.90;;;17.20;99.90;;;;;;5099241;28;20461;-72
2021/06/07 06:45:06;;;;;;;70.97;52.17;;;17.10;99.90;;;;;;5096330;28;20516;-71
2021/06/07 06:47:34;;;;;;;71.07;49.57;;;17.20;99.90;;;;;;5096435;28;20461;-71
2021/06/07 06:50:03;;;;;;;62.43;44.80;;;17.30;99.90;;;;;;5102992;28;20450;-71
2021/06/07 06:52:30;;;;;;;54.63;44.67;;;17.40;99.90;;;;;;5100508;28;20518;-72
2021/06/07 06:54:57;;;;;;;54.20;42.40;;;17.60;99.90;;;;;;5101714;28;20541;-71
2021/06/07 06:57:23;;;;;;;58.43;44.40;;;17.70;99.90;;;;;;5093834;28;20698;-73
2021/06/07 06:59:49;;;;;;;56.40;44.47;;;17.60;99.90;;;;;;5096938;28;20486;-72
2021/06/07 07:02:15;;;;;;;54.73;45.90;;;17.50;99.90;;;;;;5100368;28;20488;-71
2021/06/07 07:04:42;;;;;;;56.83;43.07;;;17.80;99.90;;;;;;5095276;28;20517;-73
2021/06/07 07:07:10;;;;;;;47.57;39.23;;;17.90;99.90;;;;;;5096057;28;20500;-71
2021/06/07 07:09:36;;;;;;;58.80;41.27;;;18.00;99.90;;;;;;5097757;28;20710;-71
2021/06/07 07:12:04;;;;;;;53.60;41.77;;;18.00;99.90;;;;;;5098266;28;20877;-71
2021/06/07 07:14:30;;;;;;;55.03;43.63;;;18.20;99.90;;;;;;5098421;28;20896;-71
2021/06/07 07:16:57;;;;;;;55.20;45.03;;;18.20;99.90;;;;;;5102191;28;20470;-72
2021/06/07 07:19:23;;;;;;;53.97;42.30;;;18.50;99.90;;;;;;5094688;28;20451;-71
2021/06/07 07:21:49;;;;;;;57.90;45.90;;;18.40;99.90;;;;;;5101956;28;20476;-70
2021/06/07 07:24:17;;;;;;;57.07;44.77;;;18.60;99.90;;;;;;5096907;28;20457;-72
2021/06/07 07:26:43;;;;;;;61.97;45.73;;;18.40;99.90;;;;;;5099813;28;20479;-74
2021/06/07 07:29:10;;;;;;;56.30;44.60;;;18.50;99.90;;;;;;5097834;28;20846;-71
2021/06/07 07:31:36;;;;;;;59.33;44.00;;;18.70;99.90;;;;;;5098302;28;20457;-74
2021/06/07 07:34:03;;;;;;;61.07;43.47;;;19.00;99.90;;;;;;5098971;28;21062;-71
2021/06/07 07:36:29;;;;;;;58.57;45.77;;;19.40;99.90;;;;;;5097026;28;20460;-72
2021/06/07 07:38:55;;;;;;;63.57;43.03;;;19.80;99.90;;;;;;5098849;28;20488;-74
2021/06/07 07:41:25;;;;;;;55.43;43.37;;;19.80;99.90;;;;;;5098082;28;20525;-71
2021/06/07 07:43:51;;;;;;;46.87;41.20;;;19.80;99.90;;;;;;5103905;28;21031;-71
2021/06/07 07:46:18;;;;;;;50.67;41.77;;;20.00;99.90;;;;;;5097246;28;20527;-71
2021/06/07 07:48:44;;;;;;;57.00;40.17;;;20.00;99.90;;;;;;5102197;28;20472;-72
2021/06/07 07:51:11;;;;;;;56.13;42.13;;;19.80;99.90;;;;;;5091093;28;20458;-74
2021/06/07 07:53:38;;;;;;;48.53;38.83;;;19.80;99.90;;;;;;5096403;28;20540;-73
2021/06/07 07:56:06;;;;;;;43.53;38.23;;;19.70;99.90;;;;;;5087308;28;20473;-72
2021/06/07 07:58:34;;;;;;;42.83;38.27;;;19.90;99.90;;;;;;5089269;28;20463;-71
2021/06/07 08:01:00;;;;;;;54.40;38.97;;;20.10;99.90;;;;;;5093307;28;20536;-71
2021/06/07 08:03:27;;;;;;;44.97;39.00;;;20.20;99.90;;;;;;5098519;28;20460;-71
2021/06/07 08:05:53;;;;;;;42.83;38.27;;;20.20;99.90;;;;;;5091708;28;21056;-75
2021/06/07 08:08:19;;;;;;;44.03;37.40;;;20.50;99.90;;;;;;5098059;28;20568;-72
2021/06/07 08:10:47;;;;;;;49.60;42.40;;;20.50;99.90;;;;;;5095679;28;20483;-73
2021/06/07 08:13:13;;;;;;;55.60;44.60;;;20.60;99.90;;;;;;5105783;27;20456;-72
2021/06/07 08:15:42;;;;;;;59.83;45.17;;;20.40;99.90;;;;;;5098687;28;20461;-72
2021/06/07 08:18:08;;;;;;;59.90;43.50;;;20.60;99.90;;;;;;5101657;28;20469;-74
2021/06/07 08:20:34;;;;;;;60.77;48.47;;;20.50;99.90;;;;;;5094066;28;20466;-72
2021/06/07 08:23:00;;;;;;;66.97;49.13;;;20.60;99.90;;;;;;5096739;28;20476;-75
2021/06/07 08:25:27;;;;;;;68.50;50.00;;;20.90;99.90;;;;;;5093562;28;20480;-72
2021/06/07 08:27:54;;;;;;;63.60;49.27;;;21.10;99.90;;;;;;5093294;28;20463;-72
2021/06/07 08:30:21;;;;;;;66.37;51.13;;;21.20;99.90;;;;;;5096349;28;20465;-72
2021/06/07 08:32:49;;;;;;;66.30;47.20;;;21.60;99.90;;;;;;5103020;28;21060;-73
2021/06/07 08:35:16;;;;;;;77.23;49.43;;;22.10;99.90;;;;;;5101531;28;20552;-72
2021/06/07 08:37:43;;;;;;;59.53;46.30;;;21.60;99.90;;;;;;5105338;28;20458;-76
2021/06/07 08:40:14;;;;;;;59.40;46.73;;;21.10;99.90;;;;;;5095918;28;21007;-72
2021/06/07 08:42:42;;;;;;;53.10;43.80;;;20.60;99.90;;;;;;5101472;28;20807;-72
2021/06/07 08:45:11;;;;;;;60.77;44.07;;;21.00;99.90;;;;;;5101032;28;20464;-72
2021/06/07 08:47:40;;;;;;;51.93;43.10;;;21.00;99.90;;;;;;5101103;28;20483;-72
2021/06/07 08:50:09;;;;;;;55.67;44.97;;;20.80;99.90;;;;;;5098019;28;21041;-73
2021/06/07 08:52:36;;;;;;;51.30;41.23;;;20.80;99.90;;;;;;5103248;28;20461;-75
2021/06/07 08:55:04;;;;;;;50.33;41.67;;;21.00;99.90;;;;;;5101011;28;20519;-72
2021/06/07 08:57:36;;;;;;;47.53;41.23;;;21.60;99.90;;;;;;5098578;28;20465;-74
2021/06/07 09:00:04;;;;;;;47.90;41.17;;;22.10;99.90;;;;;;5096051;28;20481;-73
2021/06/07 09:02:32;;;;;;;48.80;40.27;;;22.10;99.90;;;;;;5098393;28;20454;-76
2021/06/07 09:04:59;;;;;;;47.93;42.73;;;22.00;99.90;;;;;;5099758;28;20476;-72
2021/06/07 09:07:27;;;;;;;49.30;40.43;;;21.70;99.90;;;;;;5103579;28;20503;-73
2021/06/07 09:10:11;;;;;;;46.10;41.40;;;22.20;99.90;;;;;;5100781;28;20509;-73
2021/06/07 09:12:41;;;;;;;44.83;40.03;;;22.50;99.90;;;;;;5099157;28;20457;-72
2021/06/07 09:15:13;;;;;;;47.43;42.23;;;22.40;99.90;;;;;;5098984;28;20546;-74
2021/06/07 09:17:45;;;;;;;46.67;41.40;;;22.50;99.90;;;;;;5097071;28;20461;-73
2021/06/07 09:20:14;;;;;;;47.27;41.50;;;22.50;99.90;;;;;;5095431;28;20904;-73
2021/06/07 09:22:48;;;;;;;47.03;42.03;;;22.30;99.90;;;;;;5093003;28;20536;-73
2021/06/07 09:25:16;;;;;;;44.27;39.50;;;22.40;99.90;;;;;;5101999;27;20465;-74
2021/06/07 09:28:08;;;;;;;44.33;39.83;;;22.60;99.90;;;;;;5094327;27;20926;-76
2021/06/07 09:30:37;;;;;;;44.50;39.90;;;22.90;99.90;;;;;;5098424;28;20831;-76
2021/06/07 09:33:23;;;;;;;48.67;41.50;;;23.80;99.90;;;;;;5100754;27;20473;-73
2021/06/07 09:36:06;;;;;;;45.87;40.97;;;24.80;99.90;;;;;;5094246;28;20458;-74
2021/06/07 09:38:35;;;;;;;46.33;40.90;;;24.20;99.90;;;;;;5101245;28;20438;-75
2021/06/07 09:41:02;;;;;;;48.47;43.50;;;24.00;99.90;;;;;;5101559;28;20461;-76
2021/06/07 09:43:47;;;;;;;42.93;38.53;;;24.20;99.90;;;;;;5091110;28;20522;-74
2021/06/07 09:46:14;;;;;;;42.97;38.73;;;24.20;99.90;;;;;;5098104;28;20524;-77
2021/06/07 09:48:42;;;;;;;43.87;38.53;;;24.60;99.90;;;;;;5101161;28;20539;-74
2021/06/07 09:51:08;;;;;;;42.87;38.70;;;25.40;99.90;;;;;;5094412;28;20467;-75
2021/06/07 09:53:48;;;;;;;43.27;38.87;;;26.70;99.90;;;;;;5100125;28;21543;-74
2021/06/07 09:56:15;;;;;;;40.53;36.93;;;27.70;99.90;;;;;;5103821;28;20459;-74
2021/06/07 09:58:44;;;;;;;43.23;39.00;;;26.50;99.90;;;;;;5095951;28;20487;-75
2021/06/07 10:01:13;;;;;;;45.77;41.00;;;25.20;99.90;;;;;;5095901;28;20465;-74
2021/06/07 10:03:43;;;;;;;45.77;41.30;;;25.50;99.90;;;;;;5098546;28;20531;-77
2021/06/07 10:06:22;;;;;;;46.03;41.43;;;25.50;99.90;;;;;;5097050;28;20581;-76
2021/06/07 10:08:56;;;;;;;44.10;39.67;;;24.60;99.90;;;;;;5092985;28;20457;-75
2021/06/07 10:11:24;;;;;;;45.40;41.20;;;24.30;99.90;;;;;;5097755;27;20518;-77
2021/06/07 10:14:03;;;;;;;45.40;41.07;;;23.80;99.90;;;;;;5098335;28;20457;-74
2021/06/07 10:16:29;;;;;;;41.90;37.40;;;24.30;99.90;;;;;;5098081;28;21070;-76
2021/06/07 10:18:58;;;;;;;41.63;37.80;;;24.40;99.90;;;;;;5096060;28;20469;-78
2021/06/07 10:21:25;;;;;;;41.53;37.77;;;24.70;99.90;;;;;;5099077;27;20463;-75
2021/06/07 10:23:53;;;;;;;42.10;38.20;;;24.40;99.90;;;;;;5092861;28;20464;-77
2021/06/07 10:26:19;;;;;;;41.63;37.60;;;24.40;99.90;;;;;;5096763;28;20821;-75
2021/06/07 10:28:45;;;;;;;40.17;36.63;;;24.20;99.90;;;;;;5093127;28;20828;-79
2021/06/07 10:31:13;;;;;;;39.80;36.40;;;24.10;99.90;;;;;;5095650;28;20465;-75
2021/06/07 10:33:41;;;;;;;40.17;36.80;;;24.00;99.90;;;;;;5097867;28;21010;-74
2021/06/07 10:36:40;;;;;;;39.80;35.90;;;24.00;99.90;;;;;;5095544;28;20603;-74
2021/06/07 10:39:28;;;;;;;38.90;35.47;;;23.80;99.90;;;;;;5091762;28;20553;-75
2021/06/07 10:42:21;;;;;;;34.40;31.60;;;23.10;99.90;;;;;;5095672;28;20510;-75
2021/06/07 10:44:52;;;;;;;33.83;30.83;;;23.20;99.90;;;;;;5103452;28;20471;-75
2021/06/07 10:47:20;;;;;;;33.57;30.80;;;23.40;99.90;;;;;;5094198;28;20485;-75
2021/06/07 10:49:50;;;;;;;31.60;29.00;;;23.30;99.90;;;;;;5099450;28;20517;-76
2021/06/07 10:52:19;;;;;;;27.50;25.50;;;23.60;99.90;;;;;;5095796;28;20487;-75
2021/06/07 10:54:55;;;;;;;26.77;24.90;;;23.80;99.90;;;;;;5092134;28;20485;-78
2021/06/07 10:57:38;;;;;;;26.00;24.20;;;23.50;99.90;;;;;;5089461;28;20461;-75
2021/06/07 11:00:16;;;;;;;26.30;24.47;;;24.00;99.90;;;;;;5101857;28;20481;-78
2021/06/07 11:02:44;;;;;;;27.20;25.10;;;24.10;99.90;;;;;;5097874;28;20496;-77
2021/06/07 11:05:13;;;;;;;26.40;24.40;;;24.10;99.90;;;;;;5093387;28;20487;-75
2021/06/07 11:07:43;;;;;;;27.70;25.30;;;24.00;99.90;;;;;;5096438;28;20491;-78
2021/06/07 11:10:21;;;;;;;26.20;23.97;;;23.70;99.90;;;;;;5099115;28;20480;-76
2021/06/07 11:12:49;;;;;;;25.97;24.17;;;24.10;99.90;;;;;;5097945;28;20537;-75
2021/06/07 11:15:20;;;;;;;26.23;24.23;;;24.40;99.90;;;;;;5091156;28;20457;-75
2021/06/07 11:17:47;;;;;;;24.53;22.87;;;24.10;99.90;;;;;;5097573;28;20461;-75
2021/06/07 11:20:29;;;;;;;24.90;23.10;;;23.50;99.90;;;;;;5095462;28;20453;-75
2021/06/07 11:23:07;;;;;;;24.00;22.30;;;23.50;99.90;;;;;;5100811;27;20461;-75
2021/06/07 11:25:53;;;;;;;23.20;21.60;;;23.80;99.90;;;;;;5100088;28;20848;-76
2021/06/07 11:28:44;;;;;;;26.30;24.20;;;23.70;99.90;;;;;;5093041;28;20842;-75
2021/06/07 11:31:56;;;;;;;25.17;23.37;;;23.30;99.90;;;;;;5092494;28;20461;-75
2021/06/07 11:34:45;;;;;;;23.93;22.20;;;23.30;99.90;;;;;;5095726;28;20492;-78
2021/06/07 11:37:16;;;;;;;24.33;22.63;;;23.90;99.90;;;;;;5095620;28;20454;-76
2021/06/07 11:39:52;;;;;;;23.10;21.50;;;23.50;99.90;;;;;;5095275;28;20461;-75
2021/06/07 11:42:21;;;;;;;21.97;20.60;;;23.90;99.90;;;;;;5095179;28;20463;-75
2021/06/07 11:45:05;;;;;;;22.50;20.60;;;24.30;99.90;;;;;;5094278;28;20460;-75
2021/06/07 11:47:51;;;;;;;22.93;21.30;;;24.00;99.90;;;;;;5087952;28;20500;-75
2021/06/07 11:50:20;;;;;;;23.07;21.40;;;23.50;99.90;;;;;;5090266;28;21006;-78
2021/06/07 11:52:50;;;;;;;22.80;21.23;;;23.40;99.90;;;;;;5098479;28;20763;-78
2021/06/07 11:55:41;;;;;;;23.30;21.53;;;23.10;99.90;;;;;;5097298;28;20457;-78
2021/06/07 11:58:15;;;;;;;24.23;21.93;;;23.00;99.90;;;;;;5079558;28;20453;-76
2021/06/07 12:00:44;;;;;;;24.17;22.30;;;23.10;99.90;;;;;;5097484;28;20480;-76
2021/06/07 12:03:12;;;;;;;23.77;21.93;;;23.20;99.90;;;;;;5096705;28;20457;-78
2021/06/07 12:05:39;;;;;;;23.80;21.90;;;23.00;99.90;;;;;;5094421;28;20485;-75
2021/06/07 12:08:08;;;;;;;23.23;21.63;;;22.80;99.90;;;;;;5098828;28;20461;-79
2021/06/07 12:10:35;;;;;;;23.47;21.67;;;22.70;99.90;;;;;;5095589;28;20482;-77
2021/06/07 12:13:24;;;;;;;24.60;22.17;;;22.70;99.90;;;;;;5099305;28;20471;-75
2021/06/07 12:15:56;;;;;;;23.47;21.97;;;22.60;99.90;;;;;;5096806;28;20986;-77
2021/06/07 12:18:35;;;;;;;25.57;23.77;;;22.70;99.90;;;;;;5100029;28;20463;-75
2021/06/07 12:21:05;;;;;;;24.57;22.80;;;22.70;99.90;;;;;;5090325;28;20834;-75
2021/06/07 12:23:35;;;;;;;24.00;22.07;;;22.80;99.90;;;;;;5093354;28;20458;-77
2021/06/07 12:29:18;;;;;;;25.37;23.60;;;23.30;99.90;;;;;;5089670;28;20527;-76
2021/06/07 12:32:08;;;;;;;24.50;22.40;;;23.90;99.90;;;;;;5098698;28;20998;-76
2021/06/07 12:34:35;;;;;;;23.57;21.87;;;24.30;99.90;;;;;;5091587;28;20469;-77
2021/06/07 12:37:03;;;;;;;23.40;21.70;;;24.70;99.90;;;;;;5097623;28;20453;-77
2021/06/07 12:39:31;;;;;;;23.93;22.13;;;25.00;99.90;;;;;;5096830;28;20491;-76
2021/06/07 12:41:57;;;;;;;24.73;23.13;;;24.60;99.90;;;;;;5095035;28;20768;-78